Terminal Aerodrome Forecast
Issued by NWS Binghamton, NY

Home | Current Version | Previous Version | Text Only | Print | Product List | Glossary On
Versions: 1 2 3 4 5 6 7 8 9 10 11 12 13 14 15 16 17 18 19 20 21 22
000
FTUS41 KBGM 190525
TAFBGM
TAF
KBGM 190525Z 1906/2006 24003KT P6SM BKN040
      TEMPO 1910/1913 2SM BR OVC007
     FM191300 25005KT P6SM SCT060
     FM191500 25006KT P6SM BKN050
     FM200000 29006KT P6SM SCT140=

USA.gov is the U.S. government's official web portal to all federal, state and local government web resources and services.